sensor_id;sensor_type;location;lat;lon;timestamp;pressure;altitude;pressure_sealevel;temperature;humidity
61484;BME280;47349;55.640;37.692;2023-07-31T02:22:00;98465.47;;;18.38;67.97
61484;BME280;47349;55.640;37.692;2023-07-31T02:24:56;98433.81;;;18.22;68.12
61484;BME280;47349;55.640;37.692;2023-07-31T02:27:36;98400.03;;;18.08;68.19
61484;BME280;47349;55.640;37.692;2023-07-31T02:30:39;98436.88;;;18.31;68.17
61484;BME280;47349;55.640;37.692;2023-07-31T02:33:27;98419.97;;;18.18;68.15
61484;BME280;47349;55.640;37.692;2023-07-31T02:37:11;98445.34;;;18.34;67.76
61484;BME280;47349;55.640;37.692;2023-07-31T02:40:02;98466.41;;;18.54;67.84
61484;BME280;47349;55.640;37.692;2023-07-31T02:43:34;98434.53;;;18.39;67.27
61484;BME280;47349;55.640;37.692;2023-07-31T02:46:19;98425.22;;;18.30;67.40
61484;BME280;47349;55.640;37.692;2023-07-31T02:48:52;98442.66;;;18.39;67.04
61484;BME280;47349;55.640;37.692;2023-07-31T02:51:24;98475.47;;;18.65;67.34
61484;BME280;47349;55.640;37.692;2023-07-31T02:54:02;98455.06;;;18.57;67.20
61484;BME280;47349;55.640;37.692;2023-07-31T02:56:37;98459.72;;;18.62;66.87
61484;BME280;47349;55.640;37.692;2023-07-31T02:59:28;98483.72;;;18.75;66.84
61484;BME280;47349;55.640;37.692;2023-07-31T03:02:15;98463.06;;;18.69;66.79
61484;BME280;47349;55.640;37.692;2023-07-31T03:05:24;98418.03;;;18.46;66.55
61484;BME280;47349;55.640;37.692;2023-07-31T03:08:54;98473.44;;;18.77;65.73
61484;BME280;47349;55.640;37.692;2023-07-31T03:11:23;98447.25;;;18.66;66.04
61484;BME280;47349;55.640;37.692;2023-07-31T03:13:58;98409.38;;;18.49;66.23
61484;BME280;47349;55.640;37.692;2023-07-31T03:16:39;98408.63;;;18.54;66.17
61484;BME280;47349;55.640;37.692;2023-07-31T03:19:09;98417.72;;;18.69;65.81
61484;BME280;47349;55.640;37.692;2023-07-31T03:21:39;98461.09;;;18.96;66.24
61484;BME280;47349;55.640;37.692;2023-07-31T03:24:09;98435.78;;;18.86;66.08
61484;BME280;47349;55.640;37.692;2023-07-31T03:26:37;98418.84;;;18.73;65.82
61484;BME280;47349;55.640;37.692;2023-07-31T03:29:05;98408.50;;;18.70;65.32
61484;BME280;47349;55.640;37.692;2023-07-31T03:31:35;98420.50;;;18.80;65.36
61484;BME280;47349;55.640;37.692;2023-07-31T03:34:08;98411.78;;;18.72;65.01
61484;BME280;47349;55.640;37.692;2023-07-31T03:36:45;98431.16;;;18.86;65.16
61484;BME280;47349;55.640;37.692;2023-07-31T03:39:33;98420.28;;;18.81;65.38
61484;BME280;47349;55.640;37.692;2023-07-31T03:42:42;98435.09;;;19.06;66.18
61484;BME280;47349;55.640;37.692;2023-07-31T03:45:31;98468.38;;;19.28;67.01
61484;BME280;47349;55.640;37.692;2023-07-31T03:48:19;98466.00;;;19.37;67.38
61484;BME280;47349;55.640;37.692;2023-07-31T03:51:23;98439.56;;;19.27;68.13
61484;BME280;47349;55.640;37.692;2023-07-31T03:54:50;98460.84;;;19.40;66.84
61484;BME280;47349;55.640;37.692;2023-07-31T03:58:25;98437.69;;;19.27;67.04
61484;BME280;47349;55.640;37.692;2023-07-31T04:01:55;98437.97;;;19.31;67.50
61484;BME280;47349;55.640;37.692;2023-07-31T04:04:44;98471.47;;;19.47;67.49
61484;BME280;47349;55.640;37.692;2023-07-31T04:07:31;98465.19;;;19.41;68.41
61484;BME280;47349;55.640;37.692;2023-07-31T04:10:15;98441.53;;;19.37;68.18
61484;BME280;47349;55.640;37.692;2023-07-31T04:13:01;98430.09;;;19.30;67.59
61484;BME280;47349;55.640;37.692;2023-07-31T04:15:48;98463.63;;;19.50;68.59
61484;BME280;47349;55.640;37.692;2023-07-31T04:18:32;98422.50;;;19.37;68.46
61484;BME280;47349;55.640;37.692;2023-07-31T04:21:13;98435.94;;;19.54;67.67
61484;BME280;47349;55.640;37.692;2023-07-31T04:24:03;98455.22;;;19.57;63.79
61484;BME280;47349;55.640;37.692;2023-07-31T04:26:51;98431.44;;;19.32;63.66
61484;BME280;47349;55.640;37.692;2023-07-31T04:29:34;98474.50;;;19.50;63.60
61484;BME280;47349;55.640;37.692;2023-07-31T04:32:18;98464.66;;;19.39;63.10
61484;BME280;47349;55.640;37.692;2023-07-31T04:35:04;98483.19;;;19.52;62.42
61484;BME280;47349;55.640;37.692;2023-07-31T04:37:50;98450.00;;;19.45;62.16
61484;BME280;47349;55.640;37.692;2023-07-31T04:40:54;98481.13;;;19.65;60.88
61484;BME280;47349;55.640;37.692;2023-07-31T04:44:47;98485.84;;;19.90;61.16
61484;BME280;47349;55.640;37.692;2023-07-31T04:49:00;98440.44;;;19.85;60.41
61484;BME280;47349;55.640;37.692;2023-07-31T04:53:44;98491.69;;;20.19;58.86
61484;BME280;47349;55.640;37.692;2023-07-31T04:57:33;98441.84;;;19.93;60.23
61484;BME280;47349;55.640;37.692;2023-07-31T05:00:40;98445.59;;;19.92;60.76
61484;BME280;47349;55.640;37.692;2023-07-31T05:04:23;98446.72;;;19.96;60.67
61484;BME280;47349;55.640;37.692;2023-07-31T05:07:08;98462.22;;;19.95;59.91
61484;BME280;47349;55.640;37.692;2023-07-31T05:10:18;98449.41;;;19.91;59.62
61484;BME280;47349;55.640;37.692;2023-07-31T05:13:48;98473.72;;;20.18;59.98
61484;BME280;47349;55.640;37.692;2023-07-31T05:16:32;98465.56;;;20.23;59.95
61484;BME280;47349;55.640;37.692;2023-07-31T05:19:40;98454.13;;;20.16;59.04
61484;BME280;47349;55.640;37.692;2023-07-31T05:22:45;98468.59;;;20.37;59.05
61484;BME280;47349;55.640;37.692;2023-07-31T05:25:52;98452.78;;;20.28;57.67
61484;BME280;47349;55.640;37.692;2023-07-31T05:29:08;98478.16;;;20.49;58.28
61484;BME280;47349;55.640;37.692;2023-07-31T05:32:43;98462.38;;;20.46;58.86
61484;BME280;47349;55.640;37.692;2023-07-31T05:35:57;98488.53;;;20.73;57.71
61484;BME280;47349;55.640;37.692;2023-07-31T05:39:23;98455.34;;;20.61;58.06
61484;BME280;47349;55.640;37.692;2023-07-31T05:42:36;98497.81;;;20.92;56.64
61484;BME280;47349;55.640;37.692;2023-07-31T05:45:18;98475.22;;;20.87;58.43
61484;BME280;47349;55.640;37.692;2023-07-31T05:48:00;98443.88;;;20.79;56.09
61484;BME280;47349;55.640;37.692;2023-07-31T05:50:45;98456.69;;;20.99;54.81
61484;BME280;47349;55.640;37.692;2023-07-31T05:53:47;98474.94;;;21.09;54.90
61484;BME280;47349;55.640;37.692;2023-07-31T05:57:06;98494.00;;;21.39;53.77
61484;BME280;47349;55.640;37.692;2023-07-31T06:00:10;98442.78;;;21.05;52.48
61484;BME280;47349;55.640;37.692;2023-07-31T06:02:58;98505.44;;;21.41;53.42
61484;BME280;47349;55.640;37.692;2023-07-31T06:05:42;98464.00;;;21.29;54.11
61484;BME280;47349;55.640;37.692;2023-07-31T06:08:27;98440.59;;;21.18;54.14
61484;BME280;47349;55.640;37.692;2023-07-31T06:12:53;98502.69;;;21.62;52.09
61484;BME280;47349;55.640;37.692;2023-07-31T06:16:23;98460.19;;;21.40;51.49
61484;BME280;47349;55.640;37.692;2023-07-31T06:19:29;98505.66;;;21.70;51.78
61484;BME280;47349;55.640;37.692;2023-07-31T06:23:01;98506.47;;;21.76;51.82
61484;BME280;47349;55.640;37.692;2023-07-31T06:26:17;98450.69;;;21.38;51.21
61484;BME280;47349;55.640;37.692;2023-07-31T06:30:37;98449.25;;;21.55;50.50
61484;BME280;47349;55.640;37.692;2023-07-31T06:34:50;98469.94;;;21.72;51.00
61484;BME280;47349;55.640;37.692;2023-07-31T06:38:31;98502.53;;;22.02;50.29
61484;BME280;47349;55.640;37.692;2023-07-31T06:43:13;98509.91;;;22.02;50.26
61484;BME280;47349;55.640;37.692;2023-07-31T06:48:10;98494.91;;;21.99;46.64
61484;BME280;47349;55.640;37.692;2023-07-31T06:52:44;98473.41;;;21.88;48.29
61484;BME280;47349;55.640;37.692;2023-07-31T06:56:41;98492.72;;;22.12;49.07
61484;BME280;47349;55.640;37.692;2023-07-31T06:59:38;98491.06;;;22.11;46.86
61484;BME280;47349;55.640;37.692;2023-07-31T07:02:28;98464.91;;;21.94;48.51
61484;BME280;47349;55.640;37.692;2023-07-31T07:05:35;98476.31;;;22.17;49.23
61484;BME280;47349;55.640;37.692;2023-07-31T07:09:55;98483.34;;;22.28;48.79
61484;BME280;47349;55.640;37.692;2023-07-31T07:12:39;98486.59;;;22.35;49.28
61484;BME280;47349;55.640;37.692;2023-07-31T07:15:50;98471.50;;;22.43;47.94
61484;BME280;47349;55.640;37.692;2023-07-31T07:18:42;98473.50;;;22.32;47.16
61484;BME280;47349;55.640;37.692;2023-07-31T07:21:33;98511.66;;;22.42;46.75
61484;BME280;47349;55.640;37.692;2023-07-31T07:24:18;98473.47;;;22.37;46.46
61484;BME280;47349;55.640;37.692;2023-07-31T07:27:00;98523.06;;;22.54;46.80
61484;BME280;47349;55.640;37.692;2023-07-31T07:29:49;98474.66;;;22.21;47.14
61484;BME280;47349;55.640;37.692;2023-07-31T07:32:46;98472.38;;;22.33;45.98
61484;BME280;47349;55.640;37.692;2023-07-31T07:36:08;98508.03;;;22.52;45.56
61484;BME280;47349;55.640;37.692;2023-07-31T07:39:10;98523.22;;;22.73;46.44
61484;BME280;47349;55.640;37.692;2023-07-31T07:45:34;98511.25;;;22.64;45.40
61484;BME280;47349;55.640;37.692;2023-07-31T07:48:22;98496.34;;;22.46;45.68
61484;BME280;47349;55.640;37.692;2023-07-31T07:50:53;98532.31;;;22.64;45.49
61484;BME280;47349;55.640;37.692;2023-07-31T07:53:29;98469.06;;;22.41;45.83
61484;BME280;47349;55.640;37.692;2023-07-31T07:56:27;98518.59;;;22.69;46.13
61484;BME280;47349;55.640;37.692;2023-07-31T08:14:27;98471.25;;;22.83;43.79
61484;BME280;47349;55.640;37.692;2023-07-31T08:17:21;98475.84;;;22.93;43.80
61484;BME280;47349;55.640;37.692;2023-07-31T08:20:51;98527.38;;;23.05;44.10
61484;BME280;47349;55.640;37.692;2023-07-31T10:00:15;98469.50;;;24.47;40.40
61484;BME280;47349;55.640;37.692;2023-07-31T10:03:00;98471.31;;;24.51;40.48
61484;BME280;47349;55.640;37.692;2023-07-31T10:06:19;98497.75;;;24.61;40.72
61484;BME280;47349;55.640;37.692;2023-07-31T10:12:31;98504.50;;;24.69;40.00
61484;BME280;47349;55.640;37.692;2023-07-31T10:19:28;98492.16;;;24.71;39.97
61484;BME280;47349;55.640;37.692;2023-07-31T10:49:09;98544.50;;;25.07;40.74
61484;BME280;47349;55.640;37.692;2023-07-31T10:52:10;98501.16;;;24.91;40.00
61484;BME280;47349;55.640;37.692;2023-07-31T11:20:18;98521.66;;;24.93;41.94
61484;BME280;47349;55.640;37.692;2023-07-31T11:23:11;98505.28;;;24.88;42.27
61484;BME280;47349;55.640;37.692;2023-07-31T11:39:36;98512.81;;;25.34;41.22
61484;BME280;47349;55.640;37.692;2023-07-31T11:43:04;98493.63;;;26.44;39.01
61484;BME280;47349;55.640;37.692;2023-07-31T12:15:53;98509.75;;;29.21;35.37
61484;BME280;47349;55.640;37.692;2023-07-31T12:18:50;98522.75;;;29.84;34.73
61484;BME280;47349;55.640;37.692;2023-07-31T12:21:29;98494.50;;;28.80;35.56
61484;BME280;47349;55.640;37.692;2023-07-31T12:24:02;98462.84;;;28.51;35.83
61484;BME280;47349;55.640;37.692;2023-07-31T12:26:36;98489.84;;;27.66;38.06
61484;BME280;47349;55.640;37.692;2023-07-31T12:35:47;98512.00;;;29.10;36.12
61484;BME280;47349;55.640;37.692;2023-07-31T12:38:16;98487.63;;;30.23;33.24
61484;BME280;47349;55.640;37.692;2023-07-31T12:40:49;98481.81;;;29.78;33.59
61484;BME280;47349;55.640;37.692;2023-07-31T12:43:29;98531.72;;;29.73;33.44
61484;BME280;47349;55.640;37.692;2023-07-31T12:46:19;98503.09;;;30.45;32.59
61484;BME280;47349;55.640;37.692;2023-07-31T12:49:06;98501.78;;;30.72;31.05
61484;BME280;47349;55.640;37.692;2023-07-31T12:51:35;98521.66;;;31.28;31.16
61484;BME280;47349;55.640;37.692;2023-07-31T12:54:03;98535.97;;;29.61;33.74
61484;BME280;47349;55.640;37.692;2023-07-31T12:56:31;98514.47;;;29.11;34.54
61484;BME280;47349;55.640;37.692;2023-07-31T12:59:01;98473.22;;;28.89;34.20
61484;BME280;47349;55.640;37.692;2023-07-31T13:01:38;98502.81;;;27.43;37.16
61484;BME280;47349;55.640;37.692;2023-07-31T13:04:13;98506.03;;;26.55;38.39
61484;BME280;47349;55.640;37.692;2023-07-31T13:06:44;98483.50;;;25.76;39.84
61484;BME280;47349;55.640;37.692;2023-07-31T13:10:09;98525.38;;;25.68;40.87
61484;BME280;47349;55.640;37.692;2023-07-31T13:12:52;98516.09;;;25.50;40.92
61484;BME280;47349;55.640;37.692;2023-07-31T13:15:54;98506.75;;;25.18;41.06
61484;BME280;47349;55.640;37.692;2023-07-31T13:18:47;98485.13;;;25.17;41.53
61484;BME280;47349;55.640;37.692;2023-07-31T13:21:22;98520.88;;;25.58;41.19
61484;BME280;47349;55.640;37.692;2023-07-31T13:23:54;98510.75;;;27.13;38.73
61484;BME280;47349;55.640;37.692;2023-07-31T13:26:30;98516.06;;;28.03;36.55
61484;BME280;47349;55.640;37.692;2023-07-31T13:29:29;98515.09;;;30.28;33.62
61484;BME280;47349;55.640;37.692;2023-07-31T13:32:04;98516.56;;;31.76;31.40
61484;BME280;47349;55.640;37.692;2023-07-31T13:34:55;98535.19;;;31.42;31.36
61484;BME280;47349;55.640;37.692;2023-07-31T13:37:37;98526.38;;;29.59;34.46
61484;BME280;47349;55.640;37.692;2023-07-31T13:40:21;98491.25;;;29.12;34.47
61484;BME280;47349;55.640;37.692;2023-07-31T13:42:51;98514.16;;;28.12;36.20
61484;BME280;47349;55.640;37.692;2023-07-31T13:45:30;98501.00;;;26.71;39.12
61484;BME280;47349;55.640;37.692;2023-07-31T13:48:07;98503.22;;;26.05;40.92
61484;BME280;47349;55.640;37.692;2023-07-31T13:50:51;98512.56;;;25.63;41.85
61484;BME280;47349;55.640;37.692;2023-07-31T13:53:21;98498.78;;;25.35;42.47
61484;BME280;47349;55.640;37.692;2023-07-31T13:56:05;98520.84;;;25.44;42.51
61484;BME280;47349;55.640;37.692;2023-07-31T13:58:37;98512.72;;;24.87;43.84
61484;BME280;47349;55.640;37.692;2023-07-31T14:01:04;98496.03;;;24.46;44.67
61484;BME280;47349;55.640;37.692;2023-07-31T14:03:33;98524.47;;;24.50;45.35
61484;BME280;47349;55.640;37.692;2023-07-31T14:06:02;98492.97;;;24.10;46.15
61484;BME280;47349;55.640;37.692;2023-07-31T14:08:52;98513.09;;;24.19;46.74
61484;BME280;47349;55.640;37.692;2023-07-31T14:11:31;98508.63;;;24.04;47.24
61484;BME280;47349;55.640;37.692;2023-07-31T14:15:05;98540.25;;;24.16;47.71
61484;BME280;47349;55.640;37.692;2023-07-31T14:17:35;98534.19;;;24.19;47.90
61484;BME280;47349;55.640;37.692;2023-07-31T14:20:06;98517.72;;;24.00;48.28
61484;BME280;47349;55.640;37.692;2023-07-31T14:22:37;98511.38;;;24.04;48.57
61484;BME280;47349;55.640;37.692;2023-07-31T14:25:11;98514.63;;;23.82;48.38
61484;BME280;47349;55.640;37.692;2023-07-31T14:27:45;98529.41;;;24.05;48.85
61484;BME280;47349;55.640;37.692;2023-07-31T14:30:17;98485.75;;;23.71;49.04
61484;BME280;47349;55.640;37.692;2023-07-31T15:21:58;98493.22;;;28.94;37.91
61484;BME280;47349;55.640;37.692;2023-07-31T15:25:59;98516.34;;;30.31;36.27
61484;BME280;47349;55.640;37.692;2023-07-31T15:29:03;98510.03;;;30.81;35.12
61484;BME280;47349;55.640;37.692;2023-07-31T15:31:51;98522.13;;;31.30;34.46
61484;BME280;47349;55.640;37.692;2023-07-31T15:34:37;98506.09;;;30.61;34.62
61484;BME280;47349;55.640;37.692;2023-07-31T15:37:22;98533.84;;;30.64;34.36
61484;BME280;47349;55.640;37.692;2023-07-31T15:40:32;98519.81;;;28.99;36.30
61484;BME280;47349;55.640;37.692;2023-07-31T15:44:24;98510.22;;;26.89;40.34
61484;BME280;47349;55.640;37.692;2023-07-31T16:24:12;98506.91;;;23.66;50.37
61484;BME280;47349;55.640;37.692;2023-07-31T16:26:53;98511.25;;;23.67;50.15
61484;BME280;47349;55.640;37.692;2023-07-31T16:30:13;98533.59;;;23.74;50.44
61484;BME280;47349;55.640;37.692;2023-07-31T16:32:59;98522.44;;;23.70;50.52
61484;BME280;47349;55.640;37.692;2023-07-31T16:35:42;98510.16;;;23.63;50.80
61484;BME280;47349;55.640;37.692;2023-07-31T16:38:27;98520.03;;;23.64;51.18
61484;BME280;47349;55.640;37.692;2023-07-31T16:41:41;98519.47;;;23.67;51.37
61484;BME280;47349;55.640;37.692;2023-07-31T16:44:45;98529.19;;;23.78;51.06
61484;BME280;47349;55.640;37.692;2023-07-31T16:48:12;98534.03;;;23.86;51.28
61484;BME280;47349;55.640;37.692;2023-07-31T16:55:58;98532.13;;;25.10;48.61
61484;BME280;47349;55.640;37.692;2023-07-31T16:58:46;98542.34;;;25.37;47.63
61484;BME280;47349;55.640;37.692;2023-07-31T17:01:24;98537.31;;;25.44;47.39
61484;BME280;47349;55.640;37.692;2023-07-31T17:04:21;98525.50;;;25.30;47.87
61484;BME280;47349;55.640;37.692;2023-07-31T17:07:10;98554.59;;;25.45;47.84
61484;BME280;47349;55.640;37.692;2023-07-31T17:10:09;98554.38;;;25.41;48.22
61484;BME280;47349;55.640;37.692;2023-07-31T17:12:50;98551.44;;;25.19;48.73
61484;BME280;47349;55.640;37.692;2023-07-31T17:15:22;98531.53;;;24.75;49.16
61484;BME280;47349;55.640;37.692;2023-07-31T17:17:54;98547.97;;;24.56;50.42
61484;BME280;47349;55.640;37.692;2023-07-31T17:20:22;98567.25;;;24.46;50.32
61484;BME280;47349;55.640;37.692;2023-07-31T17:23:05;98553.81;;;24.26;50.67
61484;BME280;47349;55.640;37.692;2023-07-31T17:25:47;98566.44;;;24.22;51.68
61484;BME280;47349;55.640;37.692;2023-07-31T17:28:36;98559.09;;;23.93;51.88
61484;BME280;47349;55.640;37.692;2023-07-31T17:31:57;98580.09;;;23.79;52.91
61484;BME280;47349;55.640;37.692;2023-07-31T17:34:46;98595.25;;;23.66;53.28
61484;BME280;47349;55.640;37.692;2023-07-31T17:37:29;98601.06;;;23.54;54.36
61484;BME280;47349;55.640;37.692;2023-07-31T17:40:10;98595.16;;;23.42;54.44
61484;BME280;47349;55.640;37.692;2023-07-31T17:42:52;98564.44;;;23.21;54.30
61484;BME280;47349;55.640;37.692;2023-07-31T17:45:35;98585.47;;;23.21;54.72
61484;BME280;47349;55.640;37.692;2023-07-31T17:48:35;98592.63;;;23.17;55.29
61484;BME280;47349;55.640;37.692;2023-07-31T17:52:07;98587.25;;;23.01;54.95
61484;BME280;47349;55.640;37.692;2023-07-31T17:55:49;98622.47;;;23.08;55.91
61484;BME280;47349;55.640;37.692;2023-07-31T17:58:59;98621.94;;;23.06;55.77
61484;BME280;47349;55.640;37.692;2023-07-31T18:02:22;98595.50;;;22.86;55.90
61484;BME280;47349;55.640;37.692;2023-07-31T18:05:43;98605.38;;;22.92;55.84
61484;BME280;47349;55.640;37.692;2023-07-31T18:09:19;98608.66;;;22.84;55.90
61484;BME280;47349;55.640;37.692;2023-07-31T18:18:56;98633.19;;;22.99;56.48
61484;BME280;47349;55.640;37.692;2023-07-31T18:22:08;98595.53;;;22.81;56.14
61484;BME280;47349;55.640;37.692;2023-07-31T18:24:56;98601.31;;;22.79;56.29
61484;BME280;47349;55.640;37.692;2023-07-31T18:28:47;98603.22;;;22.79;56.59
61484;BME280;47349;55.640;37.692;2023-07-31T18:32:11;98629.41;;;22.90;56.69
61484;BME280;47349;55.640;37.692;2023-07-31T18:35:49;98595.09;;;22.69;56.67
61484;BME280;47349;55.640;37.692;2023-07-31T19:09:45;98624.38;;;22.53;58.08
61484;BME280;47349;55.640;37.692;2023-07-31T19:12:27;98606.41;;;22.42;58.48
61484;BME280;47349;55.640;37.692;2023-07-31T19:15:15;98610.53;;;22.39;58.28
61484;BME280;47349;55.640;37.692;2023-07-31T19:17:57;98590.09;;;22.26;58.80
61484;BME280;47349;55.640;37.692;2023-07-31T19:20:42;98607.84;;;22.29;58.73
61484;BME280;47349;55.640;37.692;2023-07-31T19:23:25;98595.56;;;22.21;59.03
61484;BME280;47349;55.640;37.692;2023-07-31T19:26:12;98608.13;;;22.17;59.33
61484;BME280;47349;55.640;37.692;2023-07-31T19:28:54;98602.69;;;22.02;59.55
61484;BME280;47349;55.640;37.692;2023-07-31T19:31:36;98621.50;;;22.03;59.96
61484;BME280;47349;55.640;37.692;2023-07-31T19:34:17;98627.25;;;21.97;60.89
61484;BME280;47349;55.640;37.692;2023-07-31T19:37:38;98635.72;;;21.95;61.04
61484;BME280;47349;55.640;37.692;2023-07-31T19:40:25;98604.66;;;21.76;61.39
61484;BME280;47349;55.640;37.692;2023-07-31T19:43:12;98618.56;;;21.74;61.88
61484;BME280;47349;55.640;37.692;2023-07-31T19:52:20;98619.66;;;21.58;62.98
61484;BME280;47349;55.640;37.692;2023-07-31T19:55:07;98643.38;;;21.63;63.38
61484;BME280;47349;55.640;37.692;2023-07-31T19:57:51;98630.56;;;21.53;63.45
61484;BME280;47349;55.640;37.692;2023-07-31T20:00:53;98625.94;;;21.43;63.34
61484;BME280;47349;55.640;37.692;2023-07-31T20:03:39;98639.28;;;21.50;63.59
61484;BME280;47349;55.640;37.692;2023-07-31T20:06:24;98647.75;;;21.48;64.39
61484;BME280;47349;55.640;37.692;2023-07-31T20:09:41;98620.19;;;21.29;64.69
61484;BME280;47349;55.640;37.692;2023-07-31T20:12:59;98648.84;;;21.42;65.30
61484;BME280;47349;55.640;37.692;2023-07-31T20:15:40;98618.78;;;21.17;65.73
61484;BME280;47349;55.640;37.692;2023-07-31T20:21:35;98636.22;;;21.11;66.61
61484;BME280;47349;55.640;37.692;2023-07-31T20:25:17;98635.41;;;21.00;65.89
61484;BME280;47349;55.640;37.692;2023-07-31T20:28:46;98639.47;;;21.08;64.97
61484;BME280;47349;55.640;37.692;2023-07-31T20:31:46;98649.34;;;21.19;65.27
61484;BME280;47349;55.640;37.692;2023-07-31T20:34:53;98651.25;;;21.23;65.24
61484;BME280;47349;55.640;37.692;2023-07-31T20:37:42;98652.63;;;21.31;65.00
61484;BME280;47349;55.640;37.692;2023-07-31T20:40:27;98652.59;;;21.26;65.24
61484;BME280;47349;55.640;37.692;2023-07-31T20:43:10;98638.44;;;21.14;66.31
61484;BME280;47349;55.640;37.692;2023-07-31T20:45:56;98639.75;;;20.96;66.76
61484;BME280;47349;55.640;37.692;2023-07-31T20:48:44;98647.13;;;21.00;67.08
61484;BME280;47349;55.640;37.692;2023-07-31T20:51:39;98647.63;;;20.97;67.79
61484;BME280;47349;55.640;37.692;2023-07-31T20:54:33;98647.38;;;20.89;67.48
61484;BME280;47349;55.640;37.692;2023-07-31T20:57:41;98667.78;;;20.96;68.05
61484;BME280;47349;55.640;37.692;2023-07-31T21:00:24;98639.41;;;20.77;68.50
61484;BME280;47349;55.640;37.692;2023-07-31T21:03:19;98654.16;;;20.86;68.92
61484;BME280;47349;55.640;37.692;2023-07-31T21:05:50;98630.69;;;20.65;69.12
61484;BME280;47349;55.640;37.692;2023-07-31T21:08:18;98658.50;;;20.82;69.51
61484;BME280;47349;55.640;37.692;2023-07-31T21:11:11;98653.56;;;20.74;70.10
61484;BME280;47349;55.640;37.692;2023-07-31T21:13:39;98639.91;;;20.69;69.34
61484;BME280;47349;55.640;37.692;2023-07-31T21:16:08;98637.19;;;20.64;69.17
61484;BME280;47349;55.640;37.692;2023-07-31T21:18:35;98637.75;;;20.61;68.83
61484;BME280;47349;55.640;37.692;2023-07-31T21:21:04;98652.22;;;20.76;69.25
61484;BME280;47349;55.640;37.692;2023-07-31T21:23:34;98648.69;;;20.76;69.15
61484;BME280;47349;55.640;37.692;2023-07-31T21:26:02;98621.94;;;20.58;69.37
61484;BME280;47349;55.640;37.692;2023-07-31T21:28:33;98635.00;;;20.61;69.57
61484;BME280;47349;55.640;37.692;2023-07-31T21:31:11;98635.56;;;20.63;69.33
61484;BME280;47349;55.640;37.692;2023-07-31T21:33:40;98643.75;;;20.73;69.14
61484;BME280;47349;55.640;37.692;2023-07-31T21:36:08;98622.75;;;20.58;69.32
61484;BME280;47349;55.640;37.692;2023-07-31T21:38:36;98626.03;;;20.60;69.24
61484;BME280;47349;55.640;37.692;2023-07-31T21:41:07;98613.22;;;20.56;69.87
61484;BME280;47349;55.640;37.692;2023-07-31T21:43:34;98617.00;;;20.54;69.96
61484;BME280;47349;55.640;37.692;2023-07-31T21:46:02;98623.00;;;20.51;69.76
61484;BME280;47349;55.640;37.692;2023-07-31T21:48:33;98636.94;;;20.60;69.30
61484;BME280;47349;55.640;37.692;2023-07-31T21:51:16;98642.66;;;20.74;69.25
61484;BME280;47349;55.640;37.692;2023-07-31T21:54:14;98612.41;;;20.55;69.22
61484;BME280;47349;55.640;37.692;2023-07-31T21:56:55;98626.03;;;20.60;69.59
61484;BME280;47349;55.640;37.692;2023-07-31T21:59:36;98638.84;;;20.65;69.67
61484;BME280;47349;55.640;37.692;2023-07-31T22:02:18;98647.56;;;20.67;69.38
61484;BME280;47349;55.640;37.692;2023-07-31T22:04:59;98632.28;;;20.61;69.31
61484;BME280;47349;55.640;37.692;2023-07-31T22:07:43;98642.13;;;20.77;69.26
61484;BME280;47349;55.640;37.692;2023-07-31T22:10:26;98608.81;;;20.49;69.92
61484;BME280;47349;55.640;37.692;2023-07-31T22:13:08;98652.41;;;20.60;71.20
61484;BME280;47349;55.640;37.692;2023-07-31T22:15:52;98641.25;;;20.51;72.12
61484;BME280;47349;55.640;37.692;2023-07-31T22:18:33;98621.22;;;20.30;73.95
61484;BME280;47349;55.640;37.692;2023-07-31T22:21:42;98632.66;;;20.27;73.81
61484;BME280;47349;55.640;37.692;2023-07-31T22:24:25;98644.34;;;20.27;72.77
61484;BME280;47349;55.640;37.692;2023-07-31T22:27:06;98629.91;;;20.22;72.44
61484;BME280;47349;55.640;37.692;2023-07-31T22:29:47;98615.41;;;20.11;72.82
61484;BME280;47349;55.640;37.692;2023-07-31T22:32:39;98635.88;;;20.19;74.13
61484;BME280;47349;55.640;37.692;2023-07-31T22:35:20;98624.59;;;20.00;75.08
61484;BME280;47349;55.640;37.692;2023-07-31T22:38:01;98640.13;;;20.05;76.42
61484;BME280;47349;55.640;37.692;2023-07-31T22:40:48;98635.66;;;19.83;76.69
61484;BME280;47349;55.640;37.692;2023-07-31T22:43:54;98637.56;;;19.83;74.49
61484;BME280;47349;55.640;37.692;2023-07-31T22:46:36;98646.31;;;19.90;74.31
61484;BME280;47349;55.640;37.692;2023-07-31T22:49:17;98642.44;;;19.81;75.65
61484;BME280;47349;55.640;37.692;2023-07-31T22:52:01;98643.22;;;19.76;75.63
61484;BME280;47349;55.640;37.692;2023-07-31T22:54:45;98643.47;;;19.74;76.11
61484;BME280;47349;55.640;37.692;2023-07-31T22:57:27;98651.38;;;19.76;76.84
61484;BME280;47349;55.640;37.692;2023-07-31T23:00:11;98634.13;;;19.60;77.00
61484;BME280;47349;55.640;37.692;2023-07-31T23:02:52;98628.34;;;19.57;77.70
61484;BME280;47349;55.640;37.692;2023-07-31T23:08:41;98621.72;;;19.42;78.21
61484;BME280;47349;55.640;37.692;2023-07-31T23:11:22;98639.41;;;19.45;78.85
61484;BME280;47349;55.640;37.692;2023-07-31T23:14:04;98624.41;;;19.37;79.10
61484;BME280;47349;55.640;37.692;2023-07-31T23:16:45;98632.19;;;19.29;79.20
61484;BME280;47349;55.640;37.692;2023-07-31T23:19:27;98660.84;;;19.41;79.43
61484;BME280;47349;55.640;37.692;2023-07-31T23:21:55;98636.31;;;19.31;79.34
61484;BME280;47349;55.640;37.692;2023-07-31T23:24:23;98642.66;;;19.42;78.11
61484;BME280;47349;55.640;37.692;2023-07-31T23:27:04;98660.97;;;19.57;77.28
61484;BME280;47349;55.640;37.692;2023-07-31T23:29:41;98640.59;;;19.54;77.72
61484;BME280;47349;55.640;37.692;2023-07-31T23:32:22;98651.72;;;19.58;77.86
61484;BME280;47349;55.640;37.692;2023-07-31T23:35:04;98625.84;;;19.45;78.25
61484;BME280;47349;55.640;37.692;2023-07-31T23:37:36;98644.91;;;19.50;78.58